sensor_id;sensor_type;location;lat;lon;timestamp;pressure;altitude;pressure_sealevel;temperature;humidity
7940;BME280;4015;48.888;9.226;2023-06-14T00:02:03;158938.56;;;14.71;63.67
7940;BME280;4015;48.888;9.226;2023-06-14T00:04:29;158937.25;;;14.70;62.76
7940;BME280;4015;48.888;9.226;2023-06-14T00:06:56;158892.47;;;14.52;63.70
7940;BME280;4015;48.888;9.226;2023-06-14T00:09:22;158946.22;;;14.74;63.38
7940;BME280;4015;48.888;9.226;2023-06-14T00:11:47;158919.31;;;14.63;63.18
7940;BME280;4015;48.888;9.226;2023-06-14T00:14:13;158906.50;;;14.58;64.28
7940;BME280;4015;48.888;9.226;2023-06-14T00:16:39;158852.69;;;14.37;66.02
7940;BME280;4015;48.888;9.226;2023-06-14T00:19:08;158841.16;;;14.32;65.25
7940;BME280;4015;48.888;9.226;2023-06-14T00:21:33;158816.84;;;14.22;64.94
7940;BME280;4015;48.888;9.226;2023-06-14T00:24:00;158788.69;;;14.11;64.97
7940;BME280;4015;48.888;9.226;2023-06-14T00:26:26;158866.78;;;14.42;64.63
7940;BME280;4015;48.888;9.226;2023-06-14T00:28:52;158841.16;;;14.32;65.01
7940;BME280;4015;48.888;9.226;2023-06-14T00:31:17;158811.69;;;14.20;64.84
7940;BME280;4015;48.888;9.226;2023-06-14T00:33:43;158797.66;;;14.15;64.67
7940;BME280;4015;48.888;9.226;2023-06-14T00:36:09;158793.78;;;14.13;63.80
7940;BME280;4015;48.888;9.226;2023-06-14T00:38:34;158775.88;;;14.06;64.06
7940;BME280;4015;48.888;9.226;2023-06-14T00:41:00;158725.97;;;13.86;64.90
7940;BME280;4015;48.888;9.226;2023-06-14T00:43:25;158772.03;;;14.04;65.44
7940;BME280;4015;48.888;9.226;2023-06-14T00:45:50;158797.66;;;14.15;64.71
7940;BME280;4015;48.888;9.226;2023-06-14T00:48:16;158788.69;;;14.11;65.85
7940;BME280;4015;48.888;9.226;2023-06-14T00:50:42;158788.69;;;14.11;64.14
7940;BME280;4015;48.888;9.226;2023-06-14T00:53:11;158775.88;;;14.06;65.11
7940;BME280;4015;48.888;9.226;2023-06-14T00:55:37;158766.94;;;14.02;65.32
7940;BME280;4015;48.888;9.226;2023-06-14T00:58:02;158747.69;;;13.95;65.94
7940;BME280;4015;48.888;9.226;2023-06-14T01:00:28;158765.66;;;14.02;66.08
7940;BME280;4015;48.888;9.226;2023-06-14T01:02:54;158764.34;;;14.01;65.88
7940;BME280;4015;48.888;9.226;2023-06-14T01:05:20;158792.50;;;14.13;66.51
7940;BME280;4015;48.888;9.226;2023-06-14T01:10:37;158723.41;;;13.85;67.18
7940;BME280;4015;48.888;9.226;2023-06-14T01:13:28;158759.22;;;13.99;67.75
7940;BME280;4015;48.888;9.226;2023-06-14T01:15:55;158734.94;;;13.90;66.71
7940;BME280;4015;48.888;9.226;2023-06-14T01:18:21;158705.50;;;13.78;66.83
7940;BME280;4015;48.888;9.226;2023-06-14T01:20:49;158714.41;;;13.82;67.78
7940;BME280;4015;48.888;9.226;2023-06-14T01:23:16;158709.31;;;13.80;67.35
7940;BME280;4015;48.888;9.226;2023-06-14T01:25:42;158700.34;;;13.76;67.25
7940;BME280;4015;48.888;9.226;2023-06-14T01:28:10;158695.22;;;13.74;68.50
7940;BME280;4015;48.888;9.226;2023-06-14T01:30:41;158672.22;;;13.65;68.35
7940;BME280;4015;48.888;9.226;2023-06-14T01:33:14;158713.16;;;13.81;69.32
7940;BME280;4015;48.888;9.226;2023-06-14T01:35:45;158656.88;;;13.59;68.81
7940;BME280;4015;48.888;9.226;2023-06-14T01:38:12;158617.16;;;13.43;68.56
7940;BME280;4015;48.888;9.226;2023-06-14T01:40:38;158609.50;;;13.40;69.08
7940;BME280;4015;48.888;9.226;2023-06-14T01:43:05;158615.88;;;13.42;68.08
7940;BME280;4015;48.888;9.226;2023-06-14T01:45:31;158667.06;;;13.63;66.81
7940;BME280;4015;48.888;9.226;2023-06-14T01:47:57;158627.41;;;13.47;66.52
7940;BME280;4015;48.888;9.226;2023-06-14T01:50:22;158624.88;;;13.46;67.48
7940;BME280;4015;48.888;9.226;2023-06-14T01:52:48;158631.25;;;13.48;66.97
7940;BME280;4015;48.888;9.226;2023-06-14T01:55:13;158615.88;;;13.42;67.61
7940;BME280;4015;48.888;9.226;2023-06-14T01:57:38;158606.97;;;13.39;67.69
7940;BME280;4015;48.888;9.226;2023-06-14T02:00:04;158646.59;;;13.55;67.79
7940;BME280;4015;48.888;9.226;2023-06-14T02:02:33;158660.69;;;13.60;68.84
7940;BME280;4015;48.888;9.226;2023-06-14T02:04:58;158592.88;;;13.33;68.92
7940;BME280;4015;48.888;9.226;2023-06-14T02:07:24;158583.91;;;13.30;68.85
7940;BME280;4015;48.888;9.226;2023-06-14T02:09:49;158580.06;;;13.28;68.72
7940;BME280;4015;48.888;9.226;2023-06-14T02:12:15;158564.72;;;13.22;69.21
7940;BME280;4015;48.888;9.226;2023-06-14T02:14:40;158554.41;;;13.18;69.90
7940;BME280;4015;48.888;9.226;2023-06-14T02:17:05;158526.25;;;13.07;70.53
7940;BME280;4015;48.888;9.226;2023-06-14T02:19:32;158556.97;;;13.19;70.12
7940;BME280;4015;48.888;9.226;2023-06-14T02:21:57;158512.22;;;13.01;70.10
7940;BME280;4015;48.888;9.226;2023-06-14T02:24:22;158521.16;;;13.05;70.73
7940;BME280;4015;48.888;9.226;2023-06-14T02:26:49;158490.44;;;12.92;70.61
7940;BME280;4015;48.888;9.226;2023-06-14T02:29:14;158464.91;;;12.82;70.38
7940;BME280;4015;48.888;9.226;2023-06-14T02:31:40;158463.56;;;12.82;70.41
7940;BME280;4015;48.888;9.226;2023-06-14T02:34:06;158454.66;;;12.78;70.54
7940;BME280;4015;48.888;9.226;2023-06-14T02:36:34;158448.22;;;12.76;70.52
7940;BME280;4015;48.888;9.226;2023-06-14T02:38:59;158431.59;;;12.69;70.37
7940;BME280;4015;48.888;9.226;2023-06-14T02:41:25;158423.94;;;12.66;70.67
7940;BME280;4015;48.888;9.226;2023-06-14T02:43:51;158430.31;;;12.68;70.81
7940;BME280;4015;48.888;9.226;2023-06-14T02:46:16;158421.41;;;12.65;70.56
7940;BME280;4015;48.888;9.226;2023-06-14T02:48:42;158454.66;;;12.78;70.28
7940;BME280;4015;48.888;9.226;2023-06-14T02:51:07;158459.75;;;12.80;70.42
7940;BME280;4015;48.888;9.226;2023-06-14T02:53:35;158452.09;;;12.77;71.12
7940;BME280;4015;48.888;9.226;2023-06-14T02:56:00;158450.81;;;12.77;71.51
7940;BME280;4015;48.888;9.226;2023-06-14T02:58:26;158485.34;;;12.90;70.17
7940;BME280;4015;48.888;9.226;2023-06-14T03:00:51;158457.19;;;12.79;70.83
7940;BME280;4015;48.888;9.226;2023-06-14T03:03:18;158471.28;;;12.85;70.81
7940;BME280;4015;48.888;9.226;2023-06-14T03:05:47;158472.53;;;12.85;70.45
7940;BME280;4015;48.888;9.226;2023-06-14T03:08:15;158518.59;;;13.04;70.92
7940;BME280;4015;48.888;9.226;2023-06-14T03:10:51;158478.94;;;12.88;70.63
7940;BME280;4015;48.888;9.226;2023-06-14T03:13:16;158467.44;;;12.83;71.05
7940;BME280;4015;48.888;9.226;2023-06-14T03:15:42;158478.94;;;12.88;71.02
7940;BME280;4015;48.888;9.226;2023-06-14T03:18:08;158518.59;;;13.04;70.06
7940;BME280;4015;48.888;9.226;2023-06-14T03:20:37;158500.69;;;12.96;69.64
7940;BME280;4015;48.888;9.226;2023-06-14T03:23:04;158508.34;;;13.00;70.76
7940;BME280;4015;48.888;9.226;2023-06-14T03:25:30;158473.81;;;12.86;72.10
7940;BME280;4015;48.888;9.226;2023-06-14T03:27:56;158461.03;;;12.81;72.85
7940;BME280;4015;48.888;9.226;2023-06-14T03:30:21;158432.88;;;12.69;73.12
7940;BME280;4015;48.888;9.226;2023-06-14T03:32:47;158505.81;;;12.99;71.76
7940;BME280;4015;48.888;9.226;2023-06-14T03:35:12;158523.72;;;13.06;71.37
7940;BME280;4015;48.888;9.226;2023-06-14T03:37:45;158510.91;;;13.01;71.31
7940;BME280;4015;48.888;9.226;2023-06-14T03:40:12;158499.44;;;12.96;71.53
7940;BME280;4015;48.888;9.226;2023-06-14T03:42:39;158537.78;;;13.11;71.54
7940;BME280;4015;48.888;9.226;2023-06-14T03:45:05;158530.13;;;13.08;71.38
7940;BME280;4015;48.888;9.226;2023-06-14T03:47:31;158485.34;;;12.90;71.97
7940;BME280;4015;48.888;9.226;2023-06-14T03:49:56;158473.81;;;12.86;72.87
7940;BME280;4015;48.888;9.226;2023-06-14T03:52:22;158536.50;;;13.11;72.25
7940;BME280;4015;48.888;9.226;2023-06-14T03:54:48;158487.91;;;12.91;72.05
7940;BME280;4015;48.888;9.226;2023-06-14T03:57:14;158544.22;;;13.14;72.13
7940;BME280;4015;48.888;9.226;2023-06-14T03:59:39;158521.16;;;13.05;71.30
7940;BME280;4015;48.888;9.226;2023-06-14T04:02:06;158545.50;;;13.14;72.67
7940;BME280;4015;48.888;9.226;2023-06-14T04:04:32;158589.00;;;13.32;72.30
7940;BME280;4015;48.888;9.226;2023-06-14T04:06:57;158569.81;;;13.24;72.66
7940;BME280;4015;48.888;9.226;2023-06-14T04:09:25;158605.63;;;13.38;72.75
7940;BME280;4015;48.888;9.226;2023-06-14T04:11:54;158599.25;;;13.36;71.70
7940;BME280;4015;48.888;9.226;2023-06-14T04:14:20;158582.63;;;13.29;72.45
7940;BME280;4015;48.888;9.226;2023-06-14T04:16:49;158647.88;;;13.55;71.98
7940;BME280;4015;48.888;9.226;2023-06-14T04:19:17;158688.84;;;13.71;70.79
7940;BME280;4015;48.888;9.226;2023-06-14T04:21:42;158679.88;;;13.68;71.01
7940;BME280;4015;48.888;9.226;2023-06-14T04:24:08;158733.66;;;13.89;70.76
7940;BME280;4015;48.888;9.226;2023-06-14T04:26:42;158742.59;;;13.93;70.08
7940;BME280;4015;48.888;9.226;2023-06-14T04:29:12;158763.06;;;14.01;70.48
7940;BME280;4015;48.888;9.226;2023-06-14T04:31:43;158792.50;;;14.13;69.82
7940;BME280;4015;48.888;9.226;2023-06-14T04:34:10;158788.69;;;14.11;71.13
7940;BME280;4015;48.888;9.226;2023-06-14T04:36:42;158787.41;;;14.11;70.37
7940;BME280;4015;48.888;9.226;2023-06-14T04:39:17;158816.84;;;14.22;70.37
7940;BME280;4015;48.888;9.226;2023-06-14T04:41:44;158860.41;;;14.40;70.41
7940;BME280;4015;48.888;9.226;2023-06-14T04:44:09;158905.22;;;14.57;70.44
7940;BME280;4015;48.888;9.226;2023-06-14T04:46:35;158921.88;;;14.64;69.80
7940;BME280;4015;48.888;9.226;2023-06-14T04:49:09;159009.00;;;14.99;67.69
7940;BME280;4015;48.888;9.226;2023-06-14T04:51:34;159050.00;;;15.15;66.55
7940;BME280;4015;48.888;9.226;2023-06-14T04:54:00;159089.69;;;15.31;67.34
7940;BME280;4015;48.888;9.226;2023-06-14T04:56:26;159097.41;;;15.34;66.11
7940;BME280;4015;48.888;9.226;2023-06-14T04:58:52;159131.97;;;15.48;65.84
7940;BME280;4015;48.888;9.226;2023-06-14T05:01:18;159169.16;;;15.62;66.60
7940;BME280;4015;48.888;9.226;2023-06-14T05:03:44;159214.03;;;15.80;63.99
7940;BME280;4015;48.888;9.226;2023-06-14T05:06:10;159225.56;;;15.85;64.24
7940;BME280;4015;48.888;9.226;2023-06-14T05:08:37;159240.94;;;15.91;64.25
7940;BME280;4015;48.888;9.226;2023-06-14T05:11:02;159316.53;;;16.21;62.29
7940;BME280;4015;48.888;9.226;2023-06-14T05:13:27;159357.56;;;16.37;62.01
7940;BME280;4015;48.888;9.226;2023-06-14T05:15:53;159365.25;;;16.40;63.81
7940;BME280;4015;48.888;9.226;2023-06-14T05:18:18;159363.97;;;16.40;63.81
7940;BME280;4015;48.888;9.226;2023-06-14T05:20:44;159401.16;;;16.55;62.68
7940;BME280;4015;48.888;9.226;2023-06-14T05:23:09;159448.66;;;16.74;62.17
7940;BME280;4015;48.888;9.226;2023-06-14T05:25:41;159473.00;;;16.83;61.13
7940;BME280;4015;48.888;9.226;2023-06-14T05:28:06;159479.44;;;16.86;61.04
7940;BME280;4015;48.888;9.226;2023-06-14T05:30:32;159508.94;;;16.97;62.14
7940;BME280;4015;48.888;9.226;2023-06-14T05:32:58;159582.00;;;17.26;59.75
7940;BME280;4015;48.888;9.226;2023-06-14T05:35:23;159596.13;;;17.32;58.79
7940;BME280;4015;48.888;9.226;2023-06-14T05:37:52;159589.72;;;17.30;59.81
7940;BME280;4015;48.888;9.226;2023-06-14T05:40:17;159605.13;;;17.36;58.68
7940;BME280;4015;48.888;9.226;2023-06-14T05:42:42;159610.22;;;17.38;59.40
7940;BME280;4015;48.888;9.226;2023-06-14T05:45:08;159606.41;;;17.36;59.95
7940;BME280;4015;48.888;9.226;2023-06-14T05:47:33;159647.41;;;17.52;59.91
7940;BME280;4015;48.888;9.226;2023-06-14T05:49:58;159688.47;;;17.69;59.02
7940;BME280;4015;48.888;9.226;2023-06-14T05:52:24;159703.94;;;17.75;58.88
7940;BME280;4015;48.888;9.226;2023-06-14T05:54:50;159729.59;;;17.85;59.13
7940;BME280;4015;48.888;9.226;2023-06-14T05:57:15;159787.31;;;18.08;58.73
7940;BME280;4015;48.888;9.226;2023-06-14T05:59:41;159778.34;;;18.04;58.08
7940;BME280;4015;48.888;9.226;2023-06-14T06:02:06;159841.25;;;18.29;57.90
7940;BME280;4015;48.888;9.226;2023-06-14T06:04:32;159878.44;;;18.44;57.66
7940;BME280;4015;48.888;9.226;2023-06-14T06:06:57;159869.44;;;18.41;58.12
7940;BME280;4015;48.888;9.226;2023-06-14T06:09:22;159890.00;;;18.49;58.46
7940;BME280;4015;48.888;9.226;2023-06-14T06:11:48;159847.63;;;18.32;57.96
7940;BME280;4015;48.888;9.226;2023-06-14T06:14:13;159895.13;;;18.51;58.05
7940;BME280;4015;48.888;9.226;2023-06-14T06:16:38;159892.56;;;18.50;56.94
7940;BME280;4015;48.888;9.226;2023-06-14T06:19:04;159969.63;;;18.80;57.09
7940;BME280;4015;48.888;9.226;2023-06-14T06:21:29;159938.81;;;18.68;56.49
7940;BME280;4015;48.888;9.226;2023-06-14T06:23:54;159991.44;;;18.89;56.23
7940;BME280;4015;48.888;9.226;2023-06-14T06:26:21;160049.22;;;19.12;56.85
7940;BME280;4015;48.888;9.226;2023-06-14T06:28:47;160060.75;;;19.17;57.01
7940;BME280;4015;48.888;9.226;2023-06-14T06:31:12;160108.25;;;19.35;56.39
7940;BME280;4015;48.888;9.226;2023-06-14T06:33:38;160054.34;;;19.14;56.19
7940;BME280;4015;48.888;9.226;2023-06-14T06:36:05;160142.97;;;19.49;55.99
7940;BME280;4015;48.888;9.226;2023-06-14T06:38:30;160162.22;;;19.57;55.51
7940;BME280;4015;48.888;9.226;2023-06-14T06:40:55;160189.25;;;19.67;56.29
7940;BME280;4015;48.888;9.226;2023-06-14T06:43:21;160200.78;;;19.72;55.87
7940;BME280;4015;48.888;9.226;2023-06-14T06:45:47;160153.22;;;19.53;55.67
7940;BME280;4015;48.888;9.226;2023-06-14T06:48:12;160261.16;;;19.96;54.81
7940;BME280;4015;48.888;9.226;2023-06-14T06:50:38;160236.78;;;19.86;53.78
7940;BME280;4015;48.888;9.226;2023-06-14T06:53:03;160187.91;;;19.67;55.19
7940;BME280;4015;48.888;9.226;2023-06-14T06:55:29;160250.84;;;19.92;54.80
7940;BME280;4015;48.888;9.226;2023-06-14T06:57:54;160304.84;;;20.13;55.95
7940;BME280;4015;48.888;9.226;2023-06-14T07:00:20;160286.88;;;20.06;55.83
7940;BME280;4015;48.888;9.226;2023-06-14T07:02:46;160363.94;;;20.37;54.71
7940;BME280;4015;48.888;9.226;2023-06-14T07:05:12;160430.81;;;20.63;54.18
7940;BME280;4015;48.888;9.226;2023-06-14T07:07:37;160540.03;;;21.07;52.00
7940;BME280;4015;48.888;9.226;2023-06-14T07:10:03;160495.06;;;20.89;52.34
7940;BME280;4015;48.888;9.226;2023-06-14T07:12:31;160493.78;;;20.88;52.93
7940;BME280;4015;48.888;9.226;2023-06-14T07:14:58;160572.19;;;21.19;51.36
7940;BME280;4015;48.888;9.226;2023-06-14T07:17:24;160802.38;;;22.11;50.46
7940;BME280;4015;48.888;9.226;2023-06-14T07:19:49;160913.00;;;22.54;49.41
7940;BME280;4015;48.888;9.226;2023-06-14T07:22:16;161080.28;;;23.21;47.64
7940;BME280;4015;48.888;9.226;2023-06-14T07:24:41;161192.31;;;23.65;46.84
7940;BME280;4015;48.888;9.226;2023-06-14T07:27:07;161211.59;;;23.73;46.98
7940;BME280;4015;48.888;9.226;2023-06-14T07:29:33;161484.56;;;24.81;44.93
7940;BME280;4015;48.888;9.226;2023-06-14T07:31:58;161586.38;;;25.21;44.51
7940;BME280;4015;48.888;9.226;2023-06-14T07:34:23;161579.91;;;25.18;44.19
7940;BME280;4015;48.888;9.226;2023-06-14T07:36:48;161907.28;;;26.48;42.26
7940;BME280;4015;48.888;9.226;2023-06-14T07:39:14;161930.44;;;26.57;43.10
7940;BME280;4015;48.888;9.226;2023-06-14T07:41:39;162154.78;;;27.46;40.11
7940;BME280;4015;48.888;9.226;2023-06-14T07:44:05;162268.28;;;27.90;40.52
7940;BME280;4015;48.888;9.226;2023-06-14T07:46:30;162251.53;;;27.84;40.32
7940;BME280;4015;48.888;9.226;2023-06-14T07:48:55;162485.06;;;28.76;38.51
7940;BME280;4015;48.888;9.226;2023-06-14T07:51:21;162420.56;;;28.51;39.31
7940;BME280;4015;48.888;9.226;2023-06-14T07:53:48;162467.00;;;28.69;38.25
7940;BME280;4015;48.888;9.226;2023-06-14T07:56:14;162295.41;;;28.01;38.94
7940;BME280;4015;48.888;9.226;2023-06-14T07:58:39;162554.75;;;29.03;38.35
7940;BME280;4015;48.888;9.226;2023-06-14T08:01:05;162776.78;;;29.91;36.96
7940;BME280;4015;48.888;9.226;2023-06-14T08:03:33;162770.34;;;29.89;38.30
7940;BME280;4015;48.888;9.226;2023-06-14T08:05:58;162987.34;;;30.74;37.29
7940;BME280;4015;48.888;9.226;2023-06-14T08:08:23;162798.75;;;30.00;37.69
7940;BME280;4015;48.888;9.226;2023-06-14T08:10:49;162975.72;;;30.70;35.61
7940;BME280;4015;48.888;9.226;2023-06-14T08:13:15;163133.31;;;31.32;35.37
7940;BME280;4015;48.888;9.226;2023-06-14T08:15:40;163020.91;;;30.87;35.35
7940;BME280;4015;48.888;9.226;2023-06-14T08:18:06;162738.06;;;29.76;38.98
7940;BME280;4015;48.888;9.226;2023-06-14T08:20:31;162814.25;;;30.06;36.89
7940;BME280;4015;48.888;9.226;2023-06-14T08:22:57;162756.13;;;29.83;38.05
7940;BME280;4015;48.888;9.226;2023-06-14T08:25:23;162780.69;;;29.93;37.67
7940;BME280;4015;48.888;9.226;2023-06-14T08:27:48;162962.75;;;30.65;36.82
7940;BME280;4015;48.888;9.226;2023-06-14T08:30:15;163091.91;;;31.15;36.28
7940;BME280;4015;48.888;9.226;2023-06-14T08:32:42;163240.47;;;31.74;35.14
7940;BME280;4015;48.888;9.226;2023-06-14T08:35:07;163139.75;;;31.34;36.66
7940;BME280;4015;48.888;9.226;2023-06-14T08:37:38;163196.59;;;31.57;35.51
7940;BME280;4015;48.888;9.226;2023-06-14T08:40:03;163077.69;;;31.10;36.06
7940;BME280;4015;48.888;9.226;2023-06-14T08:42:32;163329.69;;;32.09;35.04
7940;BME280;4015;48.888;9.226;2023-06-14T08:44:57;163338.75;;;32.13;34.18
7940;BME280;4015;48.888;9.226;2023-06-14T08:47:23;163239.19;;;31.74;34.91
7940;BME280;4015;48.888;9.226;2023-06-14T08:49:51;163226.31;;;31.68;35.89
7940;BME280;4015;48.888;9.226;2023-06-14T08:52:19;163546.88;;;32.95;33.90
7940;BME280;4015;48.888;9.226;2023-06-14T08:54:46;163643.81;;;33.33;34.26
7940;BME280;4015;48.888;9.226;2023-06-14T08:57:14;163589.50;;;33.12;34.10
7940;BME280;4015;48.888;9.226;2023-06-14T08:59:46;163563.69;;;33.01;34.37
7940;BME280;4015;48.888;9.226;2023-06-14T09:02:12;163747.25;;;33.74;33.58
7940;BME280;4015;48.888;9.226;2023-06-14T09:04:38;163823.59;;;34.04;32.74
7940;BME280;4015;48.888;9.226;2023-06-14T09:07:06;163456.34;;;32.59;33.80
7940;BME280;4015;48.888;9.226;2023-06-14T09:09:32;163751.09;;;33.75;32.61
7940;BME280;4015;48.888;9.226;2023-06-14T09:11:57;163905.03;;;34.36;32.36
7940;BME280;4015;48.888;9.226;2023-06-14T09:14:24;163634.72;;;33.29;34.60
7940;BME280;4015;48.888;9.226;2023-06-14T09:16:54;163495.09;;;32.74;33.85
7940;BME280;4015;48.888;9.226;2023-06-14T09:19:25;163571.41;;;33.05;33.88
7940;BME280;4015;48.888;9.226;2023-06-14T09:21:52;163642.50;;;33.33;33.12
7940;BME280;4015;48.888;9.226;2023-06-14T09:24:18;163443.44;;;32.54;35.39
7940;BME280;4015;48.888;9.226;2023-06-14T09:26:47;163738.22;;;33.70;34.26
7940;BME280;4015;48.888;9.226;2023-06-14T09:29:12;163769.25;;;33.83;33.34
7940;BME280;4015;48.888;9.226;2023-06-14T09:31:38;164021.44;;;34.82;31.46
7940;BME280;4015;48.888;9.226;2023-06-14T09:34:04;163104.84;;;31.21;33.64
7940;BME280;4015;48.888;9.226;2023-06-14T09:36:31;162683.91;;;29.54;38.32
7940;BME280;4015;48.888;9.226;2023-06-14T09:38:59;162578.00;;;29.13;37.68
7940;BME280;4015;48.888;9.226;2023-06-14T09:41:32;163137.16;;;31.33;35.91
7940;BME280;4015;48.888;9.226;2023-06-14T09:44:02;163874.00;;;34.24;32.57
7940;BME280;4015;48.888;9.226;2023-06-14T09:46:29;164030.53;;;34.85;31.19
7940;BME280;4015;48.888;9.226;2023-06-14T09:48:55;164389.00;;;36.27;30.10
7940;BME280;4015;48.888;9.226;2023-06-14T09:51:23;164350.19;;;36.11;30.16
7940;BME280;4015;48.888;9.226;2023-06-14T09:53:49;164206.53;;;35.55;31.84
7940;BME280;4015;48.888;9.226;2023-06-14T09:56:28;164228.50;;;35.63;30.51
7940;BME280;4015;48.888;9.226;2023-06-14T09:58:58;164202.66;;;35.53;29.74
7940;BME280;4015;48.888;9.226;2023-06-14T10:01:24;163778.28;;;33.86;31.25
7940;BME280;4015;48.888;9.226;2023-06-14T10:03:55;163753.75;;;33.76;31.49
7940;BME280;4015;48.888;9.226;2023-06-14T10:06:22;163416.28;;;32.43;33.30
7940;BME280;4015;48.888;9.226;2023-06-14T10:08:51;162868.50;;;30.27;34.71
7940;BME280;4015;48.888;9.226;2023-06-14T10:11:17;162361.16;;;28.27;36.94
7940;BME280;4015;48.888;9.226;2023-06-14T10:13:43;162189.59;;;27.59;38.60
7940;BME280;4015;48.888;9.226;2023-06-14T10:16:22;162019.41;;;26.92;38.77
7940;BME280;4015;48.888;9.226;2023-06-14T10:21:31;162548.34;;;29.01;36.65
7940;BME280;4015;48.888;9.226;2023-06-14T10:24:01;163197.88;;;31.57;33.11
7940;BME280;4015;48.888;9.226;2023-06-14T10:26:28;163670.97;;;33.44;30.04
7940;BME280;4015;48.888;9.226;2023-06-14T10:28:57;164355.34;;;36.13;28.40
7940;BME280;4015;48.888;9.226;2023-06-14T10:31:40;164638.88;;;37.25;26.43
7940;BME280;4015;48.888;9.226;2023-06-14T10:34:05;164500.31;;;36.70;26.65
7940;BME280;4015;48.888;9.226;2023-06-14T10:36:31;164544.38;;;36.88;27.86
7940;BME280;4015;48.888;9.226;2023-06-14T10:39:05;164840.94;;;38.04;27.65
7940;BME280;4015;48.888;9.226;2023-06-14T10:41:35;164695.91;;;37.47;27.25
7940;BME280;4015;48.888;9.226;2023-06-14T10:46:39;164477.06;;;36.61;27.49
7940;BME280;4015;48.888;9.226;2023-06-14T10:49:05;164699.78;;;37.49;26.12
7940;BME280;4015;48.888;9.226;2023-06-14T10:51:39;164676.44;;;37.40;27.33
7940;BME280;4015;48.888;9.226;2023-06-14T10:54:15;164741.19;;;37.65;26.87
7940;BME280;4015;48.888;9.226;2023-06-14T10:56:48;164609.09;;;37.13;25.34
7940;BME280;4015;48.888;9.226;2023-06-14T10:59:14;164939.41;;;38.43;24.54
7940;BME280;4015;48.888;9.226;2023-06-14T11:04:47;164954.94;;;38.49;25.63
7940;BME280;4015;48.888;9.226;2023-06-14T11:12:48;164373.47;;;36.20;26.00
7940;BME280;4015;48.888;9.226;2023-06-14T11:15:13;164310.09;;;35.96;25.75
7940;BME280;4015;48.888;9.226;2023-06-14T11:17:39;163708.47;;;33.59;28.63
7940;BME280;4015;48.888;9.226;2023-06-14T11:20:11;163029.91;;;30.91;31.29
7940;BME280;4015;48.888;9.226;2023-06-14T11:22:44;162929.19;;;30.51;31.81
7940;BME280;4015;48.888;9.226;2023-06-14T11:25:13;163917.97;;;34.41;30.46
7940;BME280;4015;48.888;9.226;2023-06-14T11:27:38;164579.31;;;37.02;26.74
7940;BME280;4015;48.888;9.226;2023-06-14T11:30:07;164225.94;;;35.62;28.36
7940;BME280;4015;48.888;9.226;2023-06-14T11:32:32;163952.94;;;34.55;28.33
7940;BME280;4015;48.888;9.226;2023-06-14T11:34:57;164407.16;;;36.34;27.65
7940;BME280;4015;48.888;9.226;2023-06-14T11:37:25;164917.41;;;38.35;25.08
7940;BME280;4015;48.888;9.226;2023-06-14T11:39:51;165527.75;;;40.75;23.99
7940;BME280;4015;48.888;9.226;2023-06-14T11:42:17;165330.69;;;39.97;23.95
7940;BME280;4015;48.888;9.226;2023-06-14T11:44:46;164978.22;;;38.58;24.78
7940;BME280;4015;48.888;9.226;2023-06-14T11:47:12;164197.47;;;35.51;27.95
7940;BME280;4015;48.888;9.226;2023-06-14T11:49:37;163533.94;;;32.90;28.75
7940;BME280;4015;48.888;9.226;2023-06-14T11:52:03;162842.69;;;30.17;31.96
7940;BME280;4015;48.888;9.226;2023-06-14T11:54:29;163340.03;;;32.13;29.15
7940;BME280;4015;48.888;9.226;2023-06-14T11:56:54;163941.28;;;34.50;29.05
7940;BME280;4015;48.888;9.226;2023-06-14T11:59:20;163453.78;;;32.58;30.64
7940;BME280;4015;48.888;9.226;2023-06-14T12:01:47;163480.94;;;32.69;30.83
7940;BME280;4015;48.888;9.226;2023-06-14T12:04:13;164091.38;;;35.09;27.70
7940;BME280;4015;48.888;9.226;2023-06-14T12:06:38;164477.06;;;36.61;26.23
7940;BME280;4015;48.888;9.226;2023-06-14T12:09:08;164786.53;;;37.83;27.65
7940;BME280;4015;48.888;9.226;2023-06-14T12:11:38;165013.28;;;38.72;25.64
7940;BME280;4015;48.888;9.226;2023-06-14T12:14:04;165030.13;;;38.79;25.86
7940;BME280;4015;48.888;9.226;2023-06-14T12:16:37;165074.09;;;38.96;26.46
7940;BME280;4015;48.888;9.226;2023-06-14T12:19:14;165360.53;;;40.09;25.07
7940;BME280;4015;48.888;9.226;2023-06-14T12:21:39;165417.56;;;40.31;25.42
7940;BME280;4015;48.888;9.226;2023-06-14T12:24:08;165364.41;;;40.10;24.27
7940;BME280;4015;48.888;9.226;2023-06-14T12:26:41;165286.69;;;39.80;24.09
7940;BME280;4015;48.888;9.226;2023-06-14T12:29:07;165026.19;;;38.77;27.15
7940;BME280;4015;48.888;9.226;2023-06-14T12:31:33;165120.75;;;39.15;26.47
7940;BME280;4015;48.888;9.226;2023-06-14T12:33:58;165225.72;;;39.56;25.32
7940;BME280;4015;48.888;9.226;2023-06-14T12:36:24;165379.97;;;40.16;25.97
7940;BME280;4015;48.888;9.226;2023-06-14T12:38:50;165205.03;;;39.48;26.64
7940;BME280;4015;48.888;9.226;2023-06-14T12:41:18;165390.34;;;40.21;24.73
7940;BME280;4015;48.888;9.226;2023-06-14T12:43:46;164605.22;;;37.12;26.22
7940;BME280;4015;48.888;9.226;2023-06-14T12:46:11;164658.28;;;37.33;26.85
7940;BME280;4015;48.888;9.226;2023-06-14T12:48:36;164697.19;;;37.48;25.79
7940;BME280;4015;48.888;9.226;2023-06-14T12:51:02;165103.91;;;39.08;25.94
7940;BME280;4015;48.888;9.226;2023-06-14T12:53:27;165214.06;;;39.51;25.41
7940;BME280;4015;48.888;9.226;2023-06-14T12:55:52;165199.81;;;39.46;24.93
7940;BME280;4015;48.888;9.226;2023-06-14T12:58:18;165562.75;;;40.88;23.51
7940;BME280;4015;48.888;9.226;2023-06-14T13:00:45;165527.75;;;40.75;24.44
7940;BME280;4015;48.888;9.226;2023-06-14T13:03:11;165438.28;;;40.39;26.09
7940;BME280;4015;48.888;9.226;2023-06-14T13:05:36;165129.88;;;39.18;25.54
7940;BME280;4015;48.888;9.226;2023-06-14T13:08:02;165184.25;;;39.39;25.99
7940;BME280;4015;48.888;9.226;2023-06-14T13:10:28;165499.25;;;40.63;23.35
7940;BME280;4015;48.888;9.226;2023-06-14T13:12:53;165557.59;;;40.86;24.54
7940;BME280;4015;48.888;9.226;2023-06-14T13:15:18;165365.75;;;40.11;25.18
7940;BME280;4015;48.888;9.226;2023-06-14T13:17:44;165171.31;;;39.34;25.96
7940;BME280;4015;48.888;9.226;2023-06-14T13:20:14;165403.31;;;40.26;24.12
7940;BME280;4015;48.888;9.226;2023-06-14T13:22:39;165522.53;;;40.72;24.04
7940;BME280;4015;48.888;9.226;2023-06-14T13:25:05;165604.22;;;41.05;23.98